createdAt,value
2023-01-29T00:00:16.963Z,103224.34
2023-01-29T00:02:45.133Z,103219.06
2023-01-29T00:05:26.935Z,103218.16
2023-01-29T00:07:55.752Z,103216.38
2023-01-29T00:10:23.708Z,103207.53
2023-01-29T00:12:51.837Z,103211.94
2023-01-29T00:15:20.865Z,103210.19
2023-01-29T00:17:48.860Z,103211.97
2023-01-29T00:20:19.008Z,103223.47
2023-01-29T00:22:47.247Z,103219.97
2023-01-29T00:25:15.224Z,103214.66
2023-01-29T00:27:43.845Z,103211.09
2023-01-29T00:30:13.275Z,103223.47
2023-01-29T00:32:41.319Z,103216.41
2023-01-29T00:35:10.303Z,103224.34
2023-01-29T00:37:39.564Z,103227.00
2023-01-29T00:40:08.634Z,103222.59
2023-01-29T00:42:54.141Z,103207.56
2023-01-29T00:45:22.052Z,103212.84
2023-01-29T00:47:49.921Z,103219.97
2023-01-29T00:50:18.496Z,103216.41
2023-01-29T00:52:49.692Z,103222.59
2023-01-29T00:55:17.703Z,103216.41
2023-01-29T00:57:45.571Z,103213.75
2023-01-29T01:00:15.548Z,103205.78
2023-01-29T01:03:00.904Z,103211.09
2023-01-29T01:05:28.989Z,103209.31
2023-01-29T01:07:59.275Z,103207.56
2023-01-29T01:10:27.517Z,103207.53
2023-01-29T01:12:56.424Z,103207.53
2023-01-29T01:15:24.986Z,103193.41
2023-01-29T01:17:56.360Z,103196.03
2023-01-29T01:20:24.282Z,103186.31
2023-01-29T01:22:52.162Z,103191.63
2023-01-29T01:25:21.845Z,103187.22
2023-01-29T01:27:49.702Z,103186.28
2023-01-29T01:30:18.203Z,103184.56
2023-01-29T01:32:46.356Z,103180.09
2023-01-29T01:35:14.836Z,103183.66
2023-01-29T01:37:42.867Z,103181.00
2023-01-29T01:40:18.623Z,103187.19
2023-01-29T01:42:48.843Z,103185.41
2023-01-29T01:45:20.313Z,103182.78
2023-01-29T01:47:49.167Z,103165.97
2023-01-29T01:50:18.754Z,103179.25
2023-01-29T01:52:48.558Z,103179.22
2023-01-29T01:55:17.658Z,103181.91
2023-01-29T01:57:46.292Z,103183.66
2023-01-29T02:00:17.761Z,103189.84
2023-01-29T02:03:03.766Z,103188.97
2023-01-29T02:05:50.618Z,103168.63
2023-01-29T02:08:37.079Z,103181.00
2023-01-29T02:11:05.225Z,103182.78
2023-01-29T02:13:33.141Z,103179.25
2023-01-29T02:16:02.476Z,103177.47
2023-01-29T02:18:30.344Z,103177.47
2023-01-29T02:21:07.664Z,103182.78
2023-01-29T02:24:10.890Z,103167.75
2023-01-29T02:26:42.060Z,103165.06
2023-01-29T02:29:25.250Z,103156.25
2023-01-29T02:32:03.889Z,103161.53
2023-01-29T02:34:55.633Z,103142.06
2023-01-29T02:37:25.007Z,103142.06
2023-01-29T02:39:54.723Z,103125.28
2023-01-29T02:42:27.267Z,103143.84
2023-01-29T02:44:57.696Z,103143.84
2023-01-29T02:47:28.894Z,103141.19
2023-01-29T02:50:00.901Z,103135.88
2023-01-29T02:52:30.821Z,103129.69
2023-01-29T02:55:02.953Z,103106.66
2023-01-29T02:57:31.776Z,103125.25
2023-01-29T03:00:03.535Z,103124.41
2023-01-29T03:02:33.598Z,103115.53
2023-01-29T03:05:03.158Z,103114.66
2023-01-29T03:07:46.511Z,103119.09
2023-01-29T03:10:18.682Z,103107.56
2023-01-29T03:12:47.996Z,103104.06
2023-01-29T03:15:25.172Z,103052.78
2023-01-29T03:17:55.566Z,103099.66
2023-01-29T03:20:26.626Z,103094.34
2023-01-29T03:22:57.665Z,103098.75
2023-01-29T03:25:43.442Z,103089.91
2023-01-29T03:28:28.951Z,103087.25
2023-01-29T03:31:17.253Z,103091.69
2023-01-29T03:33:47.328Z,103096.09
2023-01-29T03:36:16.802Z,103092.53
2023-01-29T03:38:44.793Z,103090.78
2023-01-29T03:41:17.040Z,103096.06
2023-01-29T03:43:48.890Z,103092.56
2023-01-29T03:46:20.023Z,103083.69
2023-01-29T03:48:51.160Z,103081.06
2023-01-29T03:51:22.458Z,103083.69
2023-01-29T03:53:52.118Z,103094.31
2023-01-29T03:56:30.339Z,103084.56
2023-01-29T03:58:59.865Z,103078.41
2023-01-29T04:01:31.401Z,103080.16
2023-01-29T04:04:02.736Z,103076.63
2023-01-29T04:06:31.662Z,103074.88
2023-01-29T04:09:00.864Z,103037.72
2023-01-29T04:11:28.797Z,103079.31
2023-01-29T04:13:56.814Z,103073.09
2023-01-29T04:16:26.501Z,103072.22
2023-01-29T04:18:55.880Z,103068.66
2023-01-29T04:21:23.829Z,103083.72
2023-01-29T04:23:51.798Z,103073.13
2023-01-29T04:26:39.044Z,103066.03
2023-01-29T04:29:16.347Z,103067.81
2023-01-29T04:31:48.090Z,103067.81
2023-01-29T04:34:22.205Z,103051.00
2023-01-29T04:36:55.777Z,103061.63
2023-01-29T04:39:25.853Z,103061.59
2023-01-29T04:41:55.297Z,103062.50
2023-01-29T04:44:24.786Z,103054.53
2023-01-29T04:46:54.410Z,103053.66
2023-01-29T04:49:30.901Z,103056.28
2023-01-29T04:52:01.490Z,103050.09
2023-01-29T04:54:34.210Z,103047.44
2023-01-29T04:57:05.814Z,103058.97
2023-01-29T04:59:35.006Z,103041.28
2023-01-29T05:02:03.322Z,103045.69
2023-01-29T05:04:33.436Z,103030.66
2023-01-29T05:07:03.505Z,103036.84
2023-01-29T05:09:31.373Z,103019.19
2023-01-29T05:11:59.296Z,103031.53
2023-01-29T05:14:28.187Z,103030.66
2023-01-29T05:16:56.319Z,103018.28
2023-01-29T05:19:24.222Z,103030.63
2023-01-29T05:21:53.483Z,103011.19
2023-01-29T05:24:22.624Z,103015.63
2023-01-29T05:27:08.523Z,103005.88
2023-01-29T05:29:36.584Z,103005.00
2023-01-29T05:32:04.561Z,103005.88
2023-01-29T05:34:32.525Z,103004.97
2023-01-29T05:37:01.812Z,102994.38
2023-01-29T05:39:30.070Z,102999.66
2023-01-29T05:41:58.231Z,102990.81
2023-01-29T05:44:26.225Z,102992.59
2023-01-29T05:46:54.197Z,102985.50
2023-01-29T05:49:22.568Z,102982.84
2023-01-29T05:51:50.469Z,102980.19
2023-01-29T05:54:19.725Z,102981.09
2023-01-29T05:56:47.600Z,102974.91
2023-01-29T05:59:16.413Z,102968.69
2023-01-29T06:01:44.430Z,102969.56
2023-01-29T06:04:12.395Z,102968.69
2023-01-29T06:06:40.299Z,102966.94
2023-01-29T06:09:08.209Z,102958.94
2023-01-29T06:11:37.476Z,102953.63
2023-01-29T06:14:05.401Z,102952.75
2023-01-29T06:16:33.402Z,102955.41
2023-01-29T06:19:01.346Z,102953.63
2023-01-29T06:21:29.445Z,102947.47
2023-01-29T06:23:57.387Z,102949.19
2023-01-29T06:26:25.326Z,102936.78
2023-01-29T06:28:54.589Z,102935.91
2023-01-29T06:31:37.365Z,102938.56
2023-01-29T06:34:06.127Z,102946.53
2023-01-29T06:36:34.011Z,102942.13
2023-01-29T06:39:01.910Z,102943.88
2023-01-29T06:41:29.850Z,102935.00
2023-01-29T06:43:59.094Z,102939.44
2023-01-29T06:46:27.068Z,102950.06
2023-01-29T06:48:55.091Z,102937.66
2023-01-29T06:51:23.338Z,102948.25
2023-01-29T06:53:51.300Z,102942.94
2023-01-29T06:56:19.240Z,102937.63
2023-01-29T06:58:47.084Z,102944.69
2023-01-29T07:01:33.379Z,102934.06
2023-01-29T07:04:03.782Z,102944.66
2023-01-29T07:06:31.767Z,102939.31
2023-01-29T07:08:59.716Z,102938.44
2023-01-29T07:11:27.591Z,102941.94
2023-01-29T07:13:55.469Z,102928.72
2023-01-29T07:16:25.126Z,102937.50
2023-01-29T07:18:53.201Z,102932.19
2023-01-29T07:21:21.093Z,102930.41
2023-01-29T07:23:49.009Z,102931.28
2023-01-29T07:26:16.973Z,102939.22
2023-01-29T07:28:44.960Z,102938.34
2023-01-29T07:31:13.730Z,102936.53
2023-01-29T07:33:43.914Z,102943.59
2023-01-29T07:36:11.962Z,102936.53
2023-01-29T07:38:39.961Z,102932.97
2023-01-29T07:41:07.923Z,102941.84
2023-01-29T07:43:36.067Z,102944.44
2023-01-29T07:46:04.551Z,102940.91
2023-01-29T07:48:32.815Z,102940.91
2023-01-29T07:51:02.119Z,102937.34
2023-01-29T07:53:30.333Z,102943.53
2023-01-29T07:55:58.359Z,102932.84
2023-01-29T07:58:26.471Z,102942.50
2023-01-29T08:00:54.841Z,102924.78
2023-01-29T08:03:22.807Z,102935.25
2023-01-29T08:05:51.149Z,102936.97
2023-01-29T08:08:20.559Z,102932.50
2023-01-29T08:10:48.645Z,102935.09
2023-01-29T08:13:16.615Z,102930.63
2023-01-29T08:15:46.160Z,102927.97
2023-01-29T08:18:14.811Z,102944.72
2023-01-29T08:20:42.900Z,102932.28
2023-01-29T08:23:15.653Z,102936.66
2023-01-29T08:25:45.028Z,102935.78
2023-01-29T08:28:13.106Z,102941.03
2023-01-29T08:30:41.091Z,102943.66
2023-01-29T08:33:09.083Z,102940.09
2023-01-29T08:35:37.133Z,102948.91
2023-01-29T08:38:05.666Z,102943.63
2023-01-29T08:40:34.547Z,102949.78
2023-01-29T08:43:06.148Z,102948.00
2023-01-29T08:45:35.914Z,102932.13
2023-01-29T08:48:04.363Z,102936.50
2023-01-29T08:50:34.477Z,102949.75
2023-01-29T08:53:02.644Z,102944.38
2023-01-29T08:55:30.564Z,102947.03
2023-01-29T08:57:58.566Z,102948.75
2023-01-29T09:00:27.996Z,102942.56
2023-01-29T09:02:56.157Z,102952.22
2023-01-29T09:05:24.206Z,102941.56
2023-01-29T09:07:54.180Z,102947.75
2023-01-29T09:10:22.244Z,102945.06
2023-01-29T09:12:50.527Z,102950.31
2023-01-29T09:15:18.867Z,102944.97
2023-01-29T09:17:49.521Z,102944.00
2023-01-29T09:20:18.106Z,102946.63
2023-01-29T09:22:46.109Z,102946.59
2023-01-29T09:25:14.596Z,102950.16
2023-01-29T09:27:43.215Z,102949.25
2023-01-29T09:30:12.486Z,102944.78
2023-01-29T09:32:56.026Z,102938.53
2023-01-29T09:35:25.633Z,102943.78
2023-01-29T09:37:53.845Z,102929.63
2023-01-29T09:40:27.002Z,102930.44
2023-01-29T09:42:57.659Z,102905.66
2023-01-29T09:45:26.176Z,102943.59
2023-01-29T09:47:54.231Z,102938.22
2023-01-29T09:50:24.757Z,102931.09
2023-01-29T09:52:54.589Z,102928.41
2023-01-29T09:55:24.047Z,102934.56
2023-01-29T09:57:53.402Z,102933.63
2023-01-29T10:00:26.104Z,102933.63
2023-01-29T10:03:00.770Z,102926.53
2023-01-29T10:05:37.269Z,102931.88
2023-01-29T10:08:17.573Z,102926.53
2023-01-29T10:10:49.981Z,102919.50
2023-01-29T10:13:23.116Z,102927.41
2023-01-29T10:16:06.458Z,102927.50
2023-01-29T10:19:07.127Z,102923.91
2023-01-29T10:21:48.019Z,102931.84
2023-01-29T10:24:23.849Z,102933.56
2023-01-29T10:26:52.044Z,102927.22
2023-01-29T10:29:22.075Z,102931.66
2023-01-29T10:31:52.323Z,102927.13
2023-01-29T10:34:24.755Z,102928.03
2023-01-29T10:36:52.891Z,102931.53
2023-01-29T10:39:22.922Z,102925.25
2023-01-29T10:42:01.702Z,102928.88
2023-01-29T10:44:38.184Z,102928.97
2023-01-29T10:47:14.297Z,102928.22
2023-01-29T10:49:58.996Z,102926.47
2023-01-29T10:52:34.069Z,102916.81
2023-01-29T10:55:09.155Z,102915.81
2023-01-29T10:57:46.450Z,102923.66
2023-01-29T11:00:17.880Z,102917.44
2023-01-29T11:02:46.551Z,102917.34
2023-01-29T11:05:20.398Z,102920.88
2023-01-29T11:07:48.393Z,102911.81
2023-01-29T11:10:19.135Z,102904.56
2023-01-29T11:12:47.146Z,102904.44
2023-01-29T11:15:18.009Z,102902.47
2023-01-29T11:18:07.238Z,102903.16
2023-01-29T11:20:35.339Z,102896.88
2023-01-29T11:23:03.210Z,102908.31
2023-01-29T11:25:33.561Z,102903.00
2023-01-29T11:28:02.104Z,102894.13
2023-01-29T11:30:31.349Z,102894.91
2023-01-29T11:33:08.599Z,102893.06
2023-01-29T11:35:36.697Z,102885.06
2023-01-29T11:38:09.139Z,102884.22
2023-01-29T11:40:40.335Z,102883.22
2023-01-29T11:43:19.823Z,102873.41
2023-01-29T11:45:47.950Z,102876.06
2023-01-29T11:48:16.779Z,102860.22
2023-01-29T11:50:44.810Z,102851.69
2023-01-29T11:53:36.186Z,102842.22
2023-01-29T11:56:08.383Z,102850.13
2023-01-29T11:58:36.544Z,102840.34
2023-01-29T12:01:04.586Z,102848.19
2023-01-29T12:03:35.669Z,102830.41
2023-01-29T12:06:05.268Z,102832.13
2023-01-29T12:08:35.178Z,102833.97
2023-01-29T12:11:12.759Z,102833.19
2023-01-29T12:13:42.446Z,102821.59
2023-01-29T12:16:17.549Z,102821.50
2023-01-29T12:18:47.832Z,102817.94
2023-01-29T12:21:21.222Z,102808.25
2023-01-29T12:23:52.821Z,102803.78
2023-01-29T12:26:24.285Z,102810.91
2023-01-29T12:28:55.930Z,102798.56
2023-01-29T12:31:28.571Z,102784.59
2023-01-29T12:33:59.689Z,102797.88
2023-01-29T12:36:29.122Z,102788.19
2023-01-29T12:38:59.017Z,102781.09
2023-01-29T12:41:33.814Z,102765.28
2023-01-29T12:44:04.534Z,102782.91
2023-01-29T12:46:34.819Z,102776.63
2023-01-29T12:49:04.438Z,102790.06
2023-01-29T12:51:35.053Z,102766.25
2023-01-29T12:54:05.238Z,102777.84
2023-01-29T12:56:36.997Z,102769.00
2023-01-29T12:59:06.588Z,102775.22
2023-01-29T13:01:35.737Z,102771.66
2023-01-29T13:04:05.020Z,102766.41
2023-01-29T13:06:34.455Z,102765.56
2023-01-29T13:09:05.082Z,102754.22
2023-01-29T13:11:38.286Z,102755.97
2023-01-29T13:14:08.583Z,102757.81
2023-01-29T13:16:39.103Z,102742.72
2023-01-29T13:19:07.869Z,102742.75
2023-01-29T13:21:39.132Z,102697.84
2023-01-29T13:24:11.290Z,102759.50
2023-01-29T13:26:40.729Z,102761.25
2023-01-29T13:29:08.650Z,102749.63
2023-01-29T13:31:37.073Z,102747.72
2023-01-29T13:34:13.120Z,102739.56
2023-01-29T13:36:43.658Z,102734.16
2023-01-29T13:39:20.142Z,102722.38
2023-01-29T13:41:49.591Z,102725.66
2023-01-29T13:44:21.808Z,102728.38
2023-01-29T13:46:52.533Z,102727.53
2023-01-29T13:49:34.592Z,102722.28
2023-01-29T13:52:15.925Z,102717.66
2023-01-29T13:54:51.028Z,102712.09
2023-01-29T14:00:35.511Z,102699.50
2023-01-29T14:04:06.203Z,102703.78
2023-01-29T14:06:52.331Z,102703.25
2023-01-29T14:09:49.998Z,102709.88
2023-01-29T14:12:49.079Z,102703.38
2023-01-29T14:15:21.764Z,102706.34
2023-01-29T14:18:07.477Z,102701.91
2023-01-29T14:20:45.648Z,102696.66
2023-01-29T14:23:23.776Z,102682.44
2023-01-29T14:25:51.698Z,102686.97
2023-01-29T14:28:22.509Z,102680.72
2023-01-29T14:30:51.999Z,102680.88
2023-01-29T14:33:28.349Z,102671.28
2023-01-29T14:35:57.435Z,102674.16
2023-01-29T14:38:26.052Z,102676.97
2023-01-29T14:40:55.008Z,102661.97
2023-01-29T14:43:23.367Z,102675.28
2023-01-29T14:45:52.742Z,102676.25
2023-01-29T14:48:39.655Z,102665.63
2023-01-29T14:51:10.660Z,102669.28
2023-01-29T14:53:54.243Z,102658.53
2023-01-29T14:56:25.846Z,102634.69
2023-01-29T14:58:56.156Z,102669.13
2023-01-29T15:01:27.133Z,102660.22
2023-01-29T15:03:56.632Z,102647.13
2023-01-29T15:06:29.169Z,102652.28
2023-01-29T15:09:01.454Z,102649.44
2023-01-29T15:11:37.514Z,102643.91
2023-01-29T15:14:27.412Z,102633.25
2023-01-29T15:17:03.739Z,102633.97
2023-01-29T15:19:36.024Z,102615.44
2023-01-29T15:22:08.743Z,102617.91
2023-01-29T15:24:37.200Z,102639.06
2023-01-29T15:27:05.218Z,102623.03
2023-01-29T15:29:33.101Z,102616.84
2023-01-29T15:32:02.451Z,102616.88
2023-01-29T15:34:30.439Z,102618.72
2023-01-29T15:36:58.355Z,102615.25
2023-01-29T15:39:27.837Z,102624.22
2023-01-29T15:42:13.921Z,102627.97
2023-01-29T15:44:45.903Z,102618.31
2023-01-29T15:47:15.222Z,102631.72
2023-01-29T15:49:43.109Z,102638.94
2023-01-29T15:52:16.866Z,102632.81
2023-01-29T15:54:44.841Z,102633.78
2023-01-29T15:57:19.687Z,102633.03
2023-01-29T15:59:51.762Z,102623.38
2023-01-29T16:02:29.423Z,102623.31
2023-01-29T16:04:57.347Z,102629.47
2023-01-29T16:07:25.233Z,102628.72
2023-01-29T16:09:53.183Z,102624.28
2023-01-29T16:12:21.051Z,102630.44
2023-01-29T16:14:49.033Z,102631.34
2023-01-29T16:17:28.027Z,102633.19
2023-01-29T16:19:59.603Z,102628.84
2023-01-29T16:22:31.090Z,102619.06
2023-01-29T16:25:02.716Z,102629.69
2023-01-29T16:27:34.152Z,102615.47
2023-01-29T16:30:06.117Z,102616.38
2023-01-29T16:32:36.433Z,102614.63
2023-01-29T16:35:06.048Z,102624.41
2023-01-29T16:37:36.753Z,102615.53
2023-01-29T16:40:16.187Z,102615.56
2023-01-29T16:42:46.075Z,102597.84
2023-01-29T16:45:28.906Z,102584.56
2023-01-29T16:48:27.290Z,102577.44
2023-01-29T16:51:05.286Z,102581.88
2023-01-29T16:53:39.079Z,102569.53
2023-01-29T16:56:12.209Z,102584.66
2023-01-29T16:58:41.749Z,102582.91
2023-01-29T17:01:14.900Z,102577.78
2023-01-29T17:03:48.650Z,102593.69
2023-01-29T17:06:22.392Z,102577.88
2023-01-29T17:08:51.648Z,102597.31
2023-01-29T17:11:27.312Z,102595.47
2023-01-29T17:13:58.094Z,102588.38
2023-01-29T17:16:30.564Z,102586.63
2023-01-29T17:19:03.103Z,102599.00
2023-01-29T17:21:32.794Z,102603.53
2023-01-29T17:24:04.105Z,102595.50
2023-01-29T17:26:37.965Z,102603.44
2023-01-29T17:29:08.544Z,102605.22
2023-01-29T17:31:42.944Z,102597.25
2023-01-29T17:34:15.338Z,102577.75
2023-01-29T17:36:43.959Z,102576.09
2023-01-29T17:39:19.802Z,102591.94
2023-01-29T17:41:50.194Z,102598.16
2023-01-29T17:44:18.353Z,102580.63
2023-01-29T17:46:48.482Z,102604.41
2023-01-29T17:49:23.449Z,102612.41
2023-01-29T17:51:52.187Z,102619.47
2023-01-29T17:54:23.501Z,102623.00
2023-01-29T17:56:51.758Z,102631.88
2023-01-29T17:59:20.383Z,102617.78
2023-01-29T18:01:48.375Z,102630.06
2023-01-29T18:04:16.621Z,102637.13
2023-01-29T18:06:55.568Z,102626.56
2023-01-29T18:09:23.572Z,102611.56
2023-01-29T18:11:51.616Z,102640.56
2023-01-29T18:14:19.557Z,102649.44
2023-01-29T18:16:47.807Z,102649.41
2023-01-29T18:19:19.208Z,102634.44
2023-01-29T18:21:48.604Z,102632.63
2023-01-29T18:24:16.620Z,102644.97
2023-01-29T18:26:44.648Z,102615.13
2023-01-29T18:29:12.660Z,102651.06
2023-01-29T18:31:40.620Z,102665.22
2023-01-29T18:34:08.619Z,102676.72
2023-01-29T18:36:36.581Z,102670.56
2023-01-29T18:39:05.830Z,102661.72
2023-01-29T18:41:33.721Z,102676.72
2023-01-29T18:44:01.749Z,102667.81
2023-01-29T18:46:29.593Z,102667.81
2023-01-29T18:48:57.491Z,102665.16
2023-01-29T18:51:25.478Z,102673.06
2023-01-29T18:53:53.472Z,102662.41
2023-01-29T18:56:22.771Z,102657.03
2023-01-29T18:58:52.395Z,102659.66
2023-01-29T19:01:23.303Z,102650.78
2023-01-29T19:03:51.270Z,102644.56
2023-01-29T19:06:19.154Z,102635.63
2023-01-29T19:08:47.536Z,102619.75
2023-01-29T19:11:15.442Z,102626.69
2023-01-29T19:13:45.317Z,102635.53
2023-01-29T19:16:13.582Z,102616.00
2023-01-29T19:18:41.581Z,102623.06
2023-01-29T19:21:10.514Z,102619.44
2023-01-29T19:23:39.232Z,102625.63
2023-01-29T19:26:08.160Z,102614.06
2023-01-29T19:28:37.153Z,102614.94
2023-01-29T19:31:06.735Z,102609.66
2023-01-29T19:33:34.794Z,102620.22
2023-01-29T19:36:04.840Z,102614.91
2023-01-29T19:38:33.718Z,102614.84
2023-01-29T19:41:01.840Z,102604.16
2023-01-29T19:43:31.591Z,102601.44
2023-01-29T19:46:01.619Z,102605.00
2023-01-29T19:48:30.972Z,102576.53
2023-01-29T19:51:00.214Z,102556.91
2023-01-29T19:53:29.636Z,102556.97
2023-01-29T19:56:01.237Z,102564.97
2023-01-29T19:58:29.133Z,102576.38
2023-01-29T20:01:00.694Z,102564.84
2023-01-29T20:03:31.142Z,102556.88
2023-01-29T20:06:02.919Z,102575.44
2023-01-29T20:08:30.898Z,102584.34
2023-01-29T20:10:58.922Z,102596.78
2023-01-29T20:13:26.848Z,102603.94
2023-01-29T20:15:55.001Z,102591.44
2023-01-29T20:18:23.109Z,102586.13
2023-01-29T20:20:53.151Z,102593.22
2023-01-29T20:23:36.533Z,102562.59
2023-01-29T20:26:06.724Z,102594.06
2023-01-29T20:28:35.050Z,102568.53
2023-01-29T20:31:03.130Z,102594.91
2023-01-29T20:33:31.917Z,102594.19
2023-01-29T20:36:05.311Z,102611.75
2023-01-29T20:38:34.708Z,102600.16
2023-01-29T20:41:09.415Z,102603.66
2023-01-29T20:43:40.464Z,102593.88
2023-01-29T20:46:09.214Z,102574.56
2023-01-29T20:48:40.096Z,102595.69
2023-01-29T20:51:13.692Z,102599.16
2023-01-29T20:53:43.168Z,102580.69
2023-01-29T20:56:11.397Z,102588.50
2023-01-29T20:58:42.227Z,102602.72
2023-01-29T21:01:10.486Z,102585.13
2023-01-29T21:03:41.568Z,102605.47
2023-01-29T21:06:11.901Z,102571.19
2023-01-29T21:08:39.924Z,102604.63
2023-01-29T21:11:11.369Z,102598.50
2023-01-29T21:13:40.095Z,102587.91
2023-01-29T21:16:11.923Z,102582.53
2023-01-29T21:18:39.893Z,102579.09
2023-01-29T21:21:10.854Z,102579.16
2023-01-29T21:23:40.328Z,102589.91
2023-01-29T21:26:10.185Z,102587.34
2023-01-29T21:28:41.180Z,102582.94
2023-01-29T21:31:10.091Z,102576.81
2023-01-29T21:33:38.101Z,102566.31
2023-01-29T21:36:06.754Z,102568.19
2023-01-29T21:38:34.666Z,102554.94
2023-01-29T21:41:04.543Z,102561.25
2023-01-29T21:43:31.465Z,102565.78
2023-01-29T21:46:00.426Z,102572.03
2023-01-29T21:48:28.445Z,102558.91
2023-01-29T21:50:56.323Z,102568.59
2023-01-29T21:53:24.233Z,102570.41
2023-01-29T21:55:52.544Z,102570.56
2023-01-29T21:58:21.802Z,102577.56
2023-01-29T22:00:49.759Z,102584.72
2023-01-29T22:03:17.665Z,102579.41
2023-01-29T22:05:45.542Z,102578.56
2023-01-29T22:08:13.501Z,102557.34
2023-01-29T22:10:41.671Z,102581.19
2023-01-29T22:13:09.778Z,102574.94
2023-01-29T22:15:39.094Z,102575.78
2023-01-29T22:18:07.122Z,102581.91
2023-01-29T22:20:36.732Z,102588.03
2023-01-29T22:23:04.812Z,102588.84
2023-01-29T22:25:33.469Z,102585.25
2023-01-29T22:28:01.429Z,102585.09
2023-01-29T22:30:29.353Z,102579.69
2023-01-29T22:32:58.729Z,102576.03
2023-01-29T22:35:26.596Z,102572.44
2023-01-29T22:37:54.807Z,102575.91
2023-01-29T22:40:22.729Z,102571.38
2023-01-29T22:42:50.601Z,102568.63
2023-01-29T22:45:18.516Z,102555.25
2023-01-29T22:47:47.030Z,102531.41
2023-01-29T22:50:16.752Z,102526.69
2023-01-29T22:52:53.579Z,102524.88
2023-01-29T22:55:21.869Z,102531.03
2023-01-29T22:57:49.918Z,102534.53
2023-01-29T23:00:19.165Z,102531.88
2023-01-29T23:02:47.616Z,102549.59
2023-01-29T23:05:17.064Z,102561.94
2023-01-29T23:07:44.946Z,102569.94
2023-01-29T23:10:14.679Z,102555.69
2023-01-29T23:12:42.804Z,102561.84
2023-01-29T23:15:11.135Z,102534.44
2023-01-29T23:17:41.277Z,102556.50
2023-01-29T23:20:10.277Z,102558.22
2023-01-29T23:22:39.667Z,102543.97
2023-01-29T23:25:08.283Z,102543.03
2023-01-29T23:27:35.286Z,102527.19
2023-01-29T23:30:03.238Z,102538.53
2023-01-29T23:32:31.290Z,102521.06
2023-01-29T23:34:59.221Z,102540.31
2023-01-29T23:37:27.187Z,102537.66
2023-01-29T23:39:56.474Z,102544.78
2023-01-29T23:42:24.439Z,102542.09
2023-01-29T23:44:52.366Z,102541.25
2023-01-29T23:47:20.209Z,102549.16
2023-01-29T23:49:48.105Z,102542.06
2023-01-29T23:52:15.995Z,102529.56
2023-01-29T23:54:43.976Z,102526.88
2023-01-29T23:57:13.209Z,102518.06
2023-01-29T23:59:41.121Z,102517.06
